Time;durP1;ratioP1;P1;durP2;ratioP2;P2;SDS_P1;SDS_P2;PMS_P1;PMS_P2;Temp;Humidity;BMP_temperature;BMP_pressure;BME280_temperature;BME280_humidity;BME280_pressure;Samples;Min_cycle;Max_cycle;Signal;HPM_P1;HPM_P2
2022/04/07 00:01:28;;;;;;;5.60;2.38;;;;;;;;;;4977557;28;20117;-83
2022/04/07 00:03:53;;;;;;;6.40;2.60;;;;;;;;;;4992988;28;20042;-82
2022/04/07 00:06:19;;;;;;;8.68;3.08;;;;;;;;;;4977227;28;20757;-83
2022/04/07 00:08:44;;;;;;;6.15;2.47;;;;;;;;;;4977955;28;20522;-82
2022/04/07 00:11:10;;;;;;;6.05;2.55;;;;;;;;;;4977031;28;20046;-83
2022/04/07 00:13:35;;;;;;;5.72;2.40;;;;;;;;;;4979521;28;20118;-83
2022/04/07 00:16:00;;;;;;;7.57;2.60;;;;;;;;;;4980072;28;20049;-85
2022/04/07 00:18:26;;;;;;;5.55;2.75;;;;;;;;;;4983044;28;21073;-84
2022/04/07 00:20:52;;;;;;;7.53;2.40;;;;;;;;;;4967525;28;20040;-84
2022/04/07 00:23:18;;;;;;;6.68;2.50;;;;;;;;;;4974547;28;20030;-86
2022/04/07 00:25:44;;;;;;;5.05;2.38;;;;;;;;;;4984024;28;20042;-84
2022/04/07 00:28:09;;;;;;;7.68;2.50;;;;;;;;;;4978263;28;20089;-83
2022/04/07 00:30:37;;;;;;;8.30;2.78;;;;;;;;;;4977933;28;20041;-83
2022/04/07 00:33:03;;;;;;;7.03;2.67;;;;;;;;;;4967241;28;20077;-83
2022/04/07 00:35:29;;;;;;;6.45;2.40;;;;;;;;;;4960326;28;20039;-84
2022/04/07 00:37:54;;;;;;;5.60;2.38;;;;;;;;;;4975842;28;20101;-83
2022/04/07 00:40:19;;;;;;;4.60;2.33;;;;;;;;;;4967198;28;20393;-85
2022/04/07 00:42:46;;;;;;;5.40;2.40;;;;;;;;;;4976376;28;20101;-85
2022/04/07 00:45:11;;;;;;;6.97;2.47;;;;;;;;;;4964054;28;20030;-83
2022/04/07 00:47:36;;;;;;;6.38;2.47;;;;;;;;;;4974825;28;20042;-84
2022/04/07 00:50:02;;;;;;;6.45;2.40;;;;;;;;;;4967761;28;20490;-82
2022/04/07 00:52:30;;;;;;;5.75;2.30;;;;;;;;;;4966887;28;20042;-83
2022/04/07 00:54:56;;;;;;;4.78;2.38;;;;;;;;;;4977948;28;20494;-85
2022/04/07 00:57:21;;;;;;;4.88;2.10;;;;;;;;;;4985000;28;20064;-85
2022/04/07 00:59:47;;;;;;;6.07;2.25;;;;;;;;;;4978372;28;20039;-85
2022/04/07 01:02:13;;;;;;;5.00;2.45;;;;;;;;;;4975005;28;20062;-84
2022/04/07 01:04:39;;;;;;;6.65;2.50;;;;;;;;;;4963233;28;20042;-84
2022/04/07 01:07:07;;;;;;;6.20;2.78;;;;;;;;;;4975721;28;20053;-83
2022/04/07 01:09:32;;;;;;;5.53;2.30;;;;;;;;;;4976523;28;20521;-83
2022/04/07 01:12:00;;;;;;;4.72;2.40;;;;;;;;;;4972985;28;20054;-84
2022/04/07 01:14:25;;;;;;;5.97;2.83;;;;;;;;;;4966424;28;20121;-83
2022/04/07 01:16:51;;;;;;;5.53;2.92;;;;;;;;;;4974927;28;20041;-82
2022/04/07 01:19:16;;;;;;;5.93;2.83;;;;;;;;;;4974728;28;20031;-85
2022/04/07 01:21:42;;;;;;;5.20;2.72;;;;;;;;;;4975826;28;20049;-84
2022/04/07 01:24:09;;;;;;;6.05;2.92;;;;;;;;;;4975882;28;20437;-84
2022/04/07 01:26:37;;;;;;;5.50;2.72;;;;;;;;;;4982711;28;20089;-83
2022/04/07 01:29:04;;;;;;;5.90;2.90;;;;;;;;;;4976919;28;20126;-83
2022/04/07 01:31:29;;;;;;;4.78;2.60;;;;;;;;;;4974639;28;20314;-83
2022/04/07 01:33:56;;;;;;;6.25;3.20;;;;;;;;;;4976010;28;20038;-82
2022/04/07 01:36:21;;;;;;;7.00;2.75;;;;;;;;;;4982839;28;20082;-83
2022/04/07 01:38:47;;;;;;;5.57;3.30;;;;;;;;;;4974916;28;20913;-83
2022/04/07 01:41:13;;;;;;;5.63;3.17;;;;;;;;;;4974060;28;20409;-83
2022/04/07 01:43:39;;;;;;;7.00;3.20;;;;;;;;;;4977305;28;20041;-83
2022/04/07 01:46:05;;;;;;;6.43;3.28;;;;;;;;;;4974219;28;20442;-83
2022/04/07 01:48:30;;;;;;;5.72;3.58;;;;;;;;;;4977710;28;20039;-83
2022/04/07 01:50:55;;;;;;;8.40;3.60;;;;;;;;;;4974529;28;20034;-83
2022/04/07 01:53:21;;;;;;;6.75;3.60;;;;;;;;;;4977603;28;20158;-84
2022/04/07 01:55:47;;;;;;;7.07;3.55;;;;;;;;;;4975897;28;20034;-84
2022/04/07 01:58:16;;;;;;;6.85;3.40;;;;;;;;;;4961490;28;20486;-84
2022/04/07 02:00:41;;;;;;;7.07;3.88;;;;;;;;;;4975176;28;20414;-84
2022/04/07 02:03:08;;;;;;;6.72;3.42;;;;;;;;;;4972550;28;20037;-84
2022/04/07 02:05:35;;;;;;;7.67;3.83;;;;;;;;;;4974899;28;20113;-84
2022/04/07 02:08:00;;;;;;;8.17;4.43;;;;;;;;;;4974590;28;20509;-84
2022/04/07 02:10:28;;;;;;;7.45;3.85;;;;;;;;;;4966400;28;20034;-83
2022/04/07 02:12:53;;;;;;;;;;;;;;;;;;4975600;28;20042;-83
2022/04/07 02:15:18;;;;;;;7.20;4.00;;;;;;;;;;4975095;28;20336;-83
2022/04/07 02:17:44;;;;;;;7.72;4.22;;;;;;;;;;4961022;28;20289;-83
2022/04/07 02:20:10;;;;;;;7.65;4.20;;;;;;;;;;4959205;28;20062;-83
2022/04/07 02:22:35;;;;;;;7.35;4.00;;;;;;;;;;4973097;28;20069;-84
2022/04/07 02:25:01;;;;;;;6.88;4.50;;;;;;;;;;4975707;28;20039;-84
2022/04/07 02:27:33;;;;;;;6.57;4.07;;;;;;;;;;4973990;28;20039;-82
2022/04/07 02:29:58;;;;;;;7.90;4.18;;;;;;;;;;4974609;28;20141;-82
2022/04/07 02:32:25;;;;;;;9.27;4.30;;;;;;;;;;4975078;28;20100;-83
2022/04/07 02:34:50;;;;;;;8.07;4.50;;;;;;;;;;4974037;28;20194;-83
2022/04/07 02:37:16;;;;;;;8.30;4.63;;;;;;;;;;4957948;28;20059;-85
2022/04/07 02:39:41;;;;;;;8.13;4.65;;;;;;;;;;4971471;28;20073;-84
2022/04/07 02:42:07;;;;;;;9.23;4.40;;;;;;;;;;4975773;28;20117;-84
2022/04/07 02:44:32;;;;;;;7.82;4.03;;;;;;;;;;4959451;28;20041;-84
2022/04/07 02:46:57;;;;;;;8.88;4.40;;;;;;;;;;4973617;28;20042;-83
2022/04/07 02:49:24;;;;;;;7.97;4.68;;;;;;;;;;4966770;28;20678;-84
2022/04/07 02:51:50;;;;;;;8.63;4.40;;;;;;;;;;4976319;28;20039;-83
2022/04/07 02:54:15;;;;;;;7.35;4.07;;;;;;;;;;4974793;28;20031;-83
2022/04/07 02:56:40;;;;;;;9.32;4.18;;;;;;;;;;4972681;28;20058;-83
2022/04/07 02:59:06;;;;;;;8.00;4.38;;;;;;;;;;4965756;28;20495;-83
2022/04/07 03:01:31;;;;;;;7.22;4.55;;;;;;;;;;4973782;28;20041;-83
2022/04/07 03:03:56;;;;;;;9.18;4.82;;;;;;;;;;4959480;28;20490;-83
2022/04/07 03:06:22;;;;;;;9.18;4.50;;;;;;;;;;4976884;28;20097;-83
2022/04/07 03:08:48;;;;;;;8.18;4.88;;;;;;;;;;4956710;28;20034;-84
2022/04/07 03:11:13;;;;;;;7.88;4.90;;;;;;;;;;4974369;28;20045;-84
2022/04/07 03:13:39;;;;;;;7.88;4.57;;;;;;;;;;4974711;28;20043;-83
2022/04/07 03:16:05;;;;;;;8.32;4.88;;;;;;;;;;4980864;28;20498;-83
2022/04/07 03:18:32;;;;;;;9.38;4.95;;;;;;;;;;4980934;28;20039;-83
2022/04/07 03:20:57;;;;;;;7.70;4.70;;;;;;;;;;4979816;28;20035;-83
2022/04/07 03:23:23;;;;;;;8.90;4.68;;;;;;;;;;4963292;28;20038;-83
2022/04/07 03:25:51;;;;;;;9.40;4.97;;;;;;;;;;4973727;28;20041;-83
2022/04/07 03:28:16;;;;;;;7.50;4.75;;;;;;;;;;4978494;28;20402;-83
2022/04/07 03:30:41;;;;;;;8.00;4.50;;;;;;;;;;4974784;28;20034;-83
2022/04/07 03:33:07;;;;;;;9.07;4.90;;;;;;;;;;4982525;28;20096;-83
2022/04/07 03:35:33;;;;;;;7.90;4.20;;;;;;;;;;4973114;28;20126;-83
2022/04/07 03:37:59;;;;;;;7.50;4.30;;;;;;;;;;4973598;28;20037;-83
2022/04/07 03:40:25;;;;;;;7.45;4.15;;;;;;;;;;4973974;28;20039;-81
2022/04/07 03:42:51;;;;;;;6.97;4.53;;;;;;;;;;4980762;28;20034;-82
2022/04/07 03:45:17;;;;;;;9.45;4.43;;;;;;;;;;4973368;28;20064;-84
2022/04/07 03:47:42;;;;;;;9.25;4.30;;;;;;;;;;4956657;28;20042;-84
2022/04/07 03:50:08;;;;;;;6.85;4.30;;;;;;;;;;4981286;28;20043;-85
2022/04/07 03:52:33;;;;;;;9.68;4.68;;;;;;;;;;4972032;28;20142;-83
2022/04/07 03:54:58;;;;;;;7.95;4.60;;;;;;;;;;4973817;28;20041;-82
2022/04/07 03:57:24;;;;;;;8.35;4.38;;;;;;;;;;4974548;28;20503;-83
2022/04/07 03:59:49;;;;;;;6.05;4.00;;;;;;;;;;4974095;28;20043;-83
2022/04/07 04:02:14;;;;;;;8.07;4.40;;;;;;;;;;4972449;28;20049;-84
2022/04/07 04:04:40;;;;;;;8.15;4.57;;;;;;;;;;4976684;28;20046;-84
2022/04/07 04:07:05;;;;;;;7.72;4.18;;;;;;;;;;4973334;28;20429;-84
2022/04/07 04:09:32;;;;;;;7.35;3.85;;;;;;;;;;4973274;28;20046;-84
2022/04/07 04:11:58;;;;;;;8.82;4.30;;;;;;;;;;4971504;28;20506;-83
2022/04/07 04:14:23;;;;;;;6.88;3.97;;;;;;;;;;4975093;28;20034;-84
2022/04/07 04:16:48;;;;;;;7.85;4.18;;;;;;;;;;4973560;28;20133;-82
2022/04/07 04:19:14;;;;;;;6.20;3.80;;;;;;;;;;4973082;28;20959;-85
2022/04/07 04:21:39;;;;;;;7.43;4.25;;;;;;;;;;4982309;28;20049;-84
2022/04/07 04:24:05;;;;;;;6.78;3.92;;;;;;;;;;4977612;28;20436;-83
2022/04/07 04:26:30;;;;;;;6.72;3.92;;;;;;;;;;4975706;28;20420;-82
2022/04/07 04:28:55;;;;;;;6.15;3.45;;;;;;;;;;4976404;28;20581;-85
2022/04/07 04:31:24;;;;;;;7.70;3.80;;;;;;;;;;4963605;28;20063;-85
2022/04/07 04:33:52;;;;;;;5.90;3.50;;;;;;;;;;4978009;28;20034;-83
2022/04/07 04:36:18;;;;;;;7.82;3.72;;;;;;;;;;4968844;28;20034;-80
2022/04/07 04:38:43;;;;;;;6.25;3.30;;;;;;;;;;4978778;28;21473;-79
2022/04/07 04:41:09;;;;;;;6.97;3.50;;;;;;;;;;4977309;28;20077;-81
2022/04/07 04:43:34;;;;;;;4.75;3.08;;;;;;;;;;4980484;28;20051;-80
2022/04/07 04:46:00;;;;;;;7.70;3.78;;;;;;;;;;4975634;28;20042;-83
2022/04/07 04:48:25;;;;;;;6.15;3.17;;;;;;;;;;4968061;28;20050;-82
2022/04/07 04:50:50;;;;;;;5.78;3.40;;;;;;;;;;4981711;28;20041;-81
2022/04/07 04:53:16;;;;;;;6.85;3.10;;;;;;;;;;4975664;28;20041;-82
2022/04/07 04:55:41;;;;;;;7.18;3.53;;;;;;;;;;4975503;28;20514;-82
2022/04/07 04:58:06;;;;;;;6.95;3.13;;;;;;;;;;4976798;28;20116;-82
2022/04/07 05:00:34;;;;;;;5.00;3.00;;;;;;;;;;4978415;28;20060;-83
2022/04/07 05:02:59;;;;;;;4.97;2.90;;;;;;;;;;4975918;28;20051;-81
2022/04/07 05:05:25;;;;;;;8.50;3.03;;;;;;;;;;4974180;28;20045;-81
2022/04/07 05:07:50;;;;;;;5.97;3.15;;;;;;;;;;4977658;28;20528;-82
2022/04/07 05:10:15;;;;;;;5.65;3.13;;;;;;;;;;4975971;28;20474;-81
2022/04/07 05:12:41;;;;;;;5.82;3.00;;;;;;;;;;4980596;28;20045;-82
2022/04/07 05:15:07;;;;;;;7.05;3.20;;;;;;;;;;4977317;28;20121;-81
2022/04/07 05:17:33;;;;;;;5.28;3.08;;;;;;;;;;4974835;28;20486;-81
2022/04/07 05:19:58;;;;;;;4.93;3.13;;;;;;;;;;4976946;28;20045;-81
2022/04/07 05:22:23;;;;;;;6.70;3.10;;;;;;;;;;4976774;28;20038;-81
2022/04/07 05:24:49;;;;;;;6.20;3.45;;;;;;;;;;4975946;28;20478;-84
2022/04/07 05:27:15;;;;;;;5.13;2.75;;;;;;;;;;4977921;28;20101;-81
2022/04/07 05:29:41;;;;;;;6.17;3.20;;;;;;;;;;4977259;28;20039;-83
2022/04/07 05:32:06;;;;;;;6.93;2.90;;;;;;;;;;4981434;28;20352;-81
2022/04/07 05:34:32;;;;;;;7.70;2.90;;;;;;;;;;4976813;28;20078;-80
2022/04/07 05:36:57;;;;;;;7.68;3.20;;;;;;;;;;4981340;28;20046;-81
2022/04/07 05:39:23;;;;;;;4.75;2.70;;;;;;;;;;4968542;28;20545;-83
2022/04/07 05:41:49;;;;;;;8.05;2.90;;;;;;;;;;4976032;28;20049;-79
2022/04/07 05:44:14;;;;;;;4.90;2.80;;;;;;;;;;4975444;28;20164;-79
2022/04/07 05:46:39;;;;;;;6.80;2.90;;;;;;;;;;4975186;28;20502;-80
2022/04/07 05:49:05;;;;;;;5.50;2.88;;;;;;;;;;4968605;28;20042;-80
2022/04/07 05:51:30;;;;;;;4.65;2.90;;;;;;;;;;4977008;28;20065;-81
2022/04/07 05:53:55;;;;;;;6.35;3.00;;;;;;;;;;4974842;28;20034;-80
2022/04/07 05:56:21;;;;;;;6.00;2.60;;;;;;;;;;4963267;28;20066;-79
2022/04/07 05:58:46;;;;;;;5.05;2.50;;;;;;;;;;4982312;28;20038;-79
2022/04/07 06:01:12;;;;;;;5.03;2.83;;;;;;;;;;4975080;28;20046;-79
2022/04/07 06:03:37;;;;;;;5.47;2.67;;;;;;;;;;4974222;28;20122;-78
2022/04/07 06:06:03;;;;;;;5.63;2.55;;;;;;;;;;4966704;28;20051;-81
2022/04/07 06:08:28;;;;;;;4.65;2.47;;;;;;;;;;4975181;28;20031;-81
2022/04/07 06:10:53;;;;;;;4.22;2.28;;;;;;;;;;4976767;28;20087;-81
2022/04/07 06:13:19;;;;;;;4.90;2.30;;;;;;;;;;4974550;28;20030;-79
2022/04/07 06:15:44;;;;;;;4.88;2.10;;;;;;;;;;4976010;28;20706;-80
2022/04/07 06:18:10;;;;;;;5.53;2.53;;;;;;;;;;4975228;28;20038;-79
2022/04/07 06:20:35;;;;;;;4.68;2.10;;;;;;;;;;4960387;28;20122;-80
2022/04/07 06:23:00;;;;;;;5.68;2.50;;;;;;;;;;4975032;28;20487;-80
2022/04/07 06:25:26;;;;;;;5.35;2.45;;;;;;;;;;4975877;28;20039;-81
2022/04/07 06:27:52;;;;;;;5.40;2.28;;;;;;;;;;4975602;28;20042;-80
2022/04/07 06:30:19;;;;;;;4.20;2.28;;;;;;;;;;4974122;28;20046;-81
2022/04/07 06:32:46;;;;;;;4.20;2.05;;;;;;;;;;4965319;28;20112;-80
2022/04/07 06:35:13;;;;;;;4.13;2.20;;;;;;;;;;4981643;28;20027;-80
2022/04/07 06:37:54;;;;;;;4.45;2.50;;;;;;;;;;4975410;28;20041;-79
2022/04/07 06:40:21;;;;;;;3.97;2.00;;;;;;;;;;4981356;28;20117;-79
2022/04/07 06:42:51;;;;;;;5.15;2.60;;;;;;;;;;4974999;28;20034;-79
2022/04/07 06:45:17;;;;;;;6.15;2.30;;;;;;;;;;4972228;28;20486;-79
2022/04/07 06:47:43;;;;;;;4.50;2.30;;;;;;;;;;4958076;28;20053;-78
2022/04/07 06:50:13;;;;;;;4.93;2.17;;;;;;;;;;4976211;28;20342;-80
2022/04/07 06:52:40;;;;;;;4.60;2.28;;;;;;;;;;4990223;28;20409;-79
2022/04/07 06:55:09;;;;;;;4.43;2.15;;;;;;;;;;4983354;28;20097;-79
2022/04/07 06:58:08;;;;;;;5.22;2.00;;;;;;;;;;4974366;28;20054;-81
2022/04/07 07:00:40;;;;;;;4.45;2.33;;;;;;;;;;4933525;28;20467;-82
2022/04/07 07:03:05;;;;;;;5.90;2.15;;;;;;;;;;4955907;28;20047;-80
2022/04/07 07:05:32;;;;;;;6.05;2.03;;;;;;;;;;4956826;28;20486;-80
2022/04/07 07:08:09;;;;;;;3.50;2.05;;;;;;;;;;4963275;28;20414;-81
2022/04/07 07:10:34;;;;;;;4.28;2.00;;;;;;;;;;4973449;28;20090;-79
2022/04/07 07:13:00;;;;;;;3.88;2.00;;;;;;;;;;4976198;28;20121;-79
2022/04/07 07:15:25;;;;;;;6.38;2.22;;;;;;;;;;4972663;28;20123;-80
2022/04/07 07:17:51;;;;;;;4.25;1.95;;;;;;;;;;4975108;28;20031;-80
2022/04/07 07:20:18;;;;;;;4.25;1.80;;;;;;;;;;4976398;28;20498;-78
2022/04/07 07:22:44;;;;;;;4.63;1.80;;;;;;;;;;4967933;28;20027;-81
2022/04/07 07:25:11;;;;;;;2.97;1.60;;;;;;;;;;4974867;28;20034;-81
2022/04/07 07:27:41;;;;;;;3.17;1.50;;;;;;;;;;4974035;28;20049;-78
2022/04/07 07:30:09;;;;;;;5.47;1.88;;;;;;;;;;4967037;28;20085;-79
2022/04/07 07:32:36;;;;;;;3.55;1.50;;;;;;;;;;4976712;28;20041;-78
2022/04/07 07:35:01;;;;;;;4.53;2.15;;;;;;;;;;4966028;28;20046;-80
2022/04/07 07:37:26;;;;;;;3.65;1.50;;;;;;;;;;4960977;28;20053;-79
2022/04/07 07:39:52;;;;;;;4.15;1.70;;;;;;;;;;4972680;28;20057;-79
2022/04/07 07:42:17;;;;;;;5.30;1.73;;;;;;;;;;4955245;28;20039;-78
2022/04/07 07:44:42;;;;;;;3.45;1.52;;;;;;;;;;4957788;28;20031;-79
2022/04/07 07:47:08;;;;;;;5.13;1.60;;;;;;;;;;4959836;28;20502;-78
2022/04/07 07:49:33;;;;;;;3.10;1.30;;;;;;;;;;4960070;28;20023;-77
2022/04/07 07:51:58;;;;;;;3.78;1.48;;;;;;;;;;4973299;28;20042;-79
2022/04/07 07:54:23;;;;;;;3.10;1.45;;;;;;;;;;4982708;28;20375;-79
2022/04/07 07:56:49;;;;;;;2.85;1.40;;;;;;;;;;4977640;28;20046;-79
2022/04/07 07:59:15;;;;;;;3.38;1.38;;;;;;;;;;4978829;28;20605;-78
2022/04/07 08:01:43;;;;;;;3.50;1.50;;;;;;;;;;4978044;28;21169;-81
2022/04/07 08:04:09;;;;;;;2.50;1.20;;;;;;;;;;4970413;28;20648;-77
2022/04/07 08:06:34;;;;;;;4.88;1.73;;;;;;;;;;4966288;28;20050;-79
2022/04/07 08:09:20;;;;;;;3.55;1.38;;;;;;;;;;4978384;28;20045;-78
2022/04/07 08:11:45;;;;;;;3.38;1.10;;;;;;;;;;4945564;28;20039;-80
2022/04/07 08:14:10;;;;;;;3.60;1.30;;;;;;;;;;4913028;29;20043;-79
2022/04/07 08:16:36;;;;;;;3.90;1.20;;;;;;;;;;4909431;29;20150;-80
2022/04/07 08:19:02;;;;;;;2.63;1.00;;;;;;;;;;4927642;29;20059;-79
2022/04/07 08:21:27;;;;;;;1.95;0.82;;;;;;;;;;4928652;28;20146;-80
2022/04/07 08:23:53;;;;;;;5.85;1.40;;;;;;;;;;4904447;29;20043;-79
2022/04/07 08:26:19;;;;;;;2.65;0.93;;;;;;;;;;4902905;29;20051;-79
2022/04/07 08:28:44;;;;;;;2.88;1.10;;;;;;;;;;4914058;29;20050;-79
2022/04/07 08:31:10;;;;;;;4.07;1.10;;;;;;;;;;4927025;29;20035;-79
2022/04/07 08:33:35;;;;;;;3.22;1.20;;;;;;;;;;4928308;28;20047;-78
2022/04/07 08:36:01;;;;;;;3.30;0.90;;;;;;;;;;4916340;28;20046;-81
2022/04/07 08:38:26;;;;;;;2.88;1.02;;;;;;;;;;4932458;29;20032;-79
2022/04/07 08:40:51;;;;;;;2.53;1.20;;;;;;;;;;4917234;28;20043;-81
2022/04/07 08:43:20;;;;;;;2.10;0.82;;;;;;;;;;4931452;29;20046;-80
2022/04/07 08:45:45;;;;;;;2.63;0.80;;;;;;;;;;4912065;29;20139;-79
2022/04/07 08:48:12;;;;;;;2.85;1.00;;;;;;;;;;4936553;28;20126;-80
2022/04/07 08:50:43;;;;;;;3.30;0.70;;;;;;;;;;4961660;28;20035;-78
2022/04/07 08:53:10;;;;;;;1.67;0.70;;;;;;;;;;4967816;28;20031;-79
2022/04/07 08:55:35;;;;;;;2.58;0.98;;;;;;;;;;4977509;28;20049;-77
2022/04/07 08:58:01;;;;;;;1.73;0.70;;;;;;;;;;4975140;28;20502;-80
2022/04/07 09:00:26;;;;;;;2.00;0.80;;;;;;;;;;4976979;28;20034;-80
2022/04/07 09:02:53;;;;;;;2.85;0.60;;;;;;;;;;4978163;28;20046;-80
2022/04/07 09:05:23;;;;;;;3.85;0.70;;;;;;;;;;4978718;28;20043;-79
2022/04/07 09:07:50;;;;;;;1.60;0.50;;;;;;;;;;4956762;28;20034;-80
2022/04/07 09:10:18;;;;;;;1.65;0.70;;;;;;;;;;4958543;28;20034;-81
2022/04/07 09:12:44;;;;;;;1.90;0.60;;;;;;;;;;4965129;28;20118;-81
2022/04/07 09:15:12;;;;;;;1.00;0.40;;;;;;;;;;4955778;28;20046;-79
2022/04/07 09:17:52;;;;;;;3.03;0.50;;;;;;;;;;4957245;28;20564;-80
2022/04/07 09:20:18;;;;;;;1.05;0.40;;;;;;;;;;4942675;28;20495;-80
2022/04/07 09:22:44;;;;;;;3.78;0.60;;;;;;;;;;4961179;28;20494;-80
2022/04/07 09:25:13;;;;;;;1.20;0.50;;;;;;;;;;4956161;28;20043;-80
2022/04/07 09:27:41;;;;;;;1.75;0.70;;;;;;;;;;4973148;28;20566;-80
2022/04/07 09:30:08;;;;;;;1.33;0.60;;;;;;;;;;4975112;28;20070;-79
2022/04/07 09:32:40;;;;;;;1.53;0.60;;;;;;;;;;4973503;28;20059;-80
2022/04/07 09:35:06;;;;;;;1.05;0.50;;;;;;;;;;4976648;28;20031;-80
2022/04/07 09:37:32;;;;;;;1.67;0.47;;;;;;;;;;4975525;28;20089;-79
2022/04/07 09:40:10;;;;;;;1.52;0.45;;;;;;;;;;4976740;28;20045;-81
2022/04/07 09:42:36;;;;;;;2.30;0.50;;;;;;;;;;4982021;28;20141;-79
2022/04/07 09:45:03;;;;;;;1.73;0.40;;;;;;;;;;4977289;28;20042;-79
2022/04/07 09:47:35;;;;;;;1.25;0.40;;;;;;;;;;4975907;28;20522;-80
2022/04/07 09:50:01;;;;;;;2.90;0.47;;;;;;;;;;4980259;28;20526;-79
2022/04/07 09:52:27;;;;;;;1.40;0.40;;;;;;;;;;4974407;28;20101;-80
2022/04/07 09:54:53;;;;;;;1.33;0.50;;;;;;;;;;4978643;28;20121;-79
2022/04/07 09:57:20;;;;;;;1.10;0.50;;;;;;;;;;4975043;28;20042;-79
2022/04/07 09:59:46;;;;;;;2.22;0.52;;;;;;;;;;4962279;28;20112;-79
2022/04/07 10:02:12;;;;;;;0.90;0.40;;;;;;;;;;4976059;28;20448;-80
2022/04/07 10:04:38;;;;;;;1.30;0.50;;;;;;;;;;4974654;28;20042;-80
2022/04/07 10:07:08;;;;;;;1.23;0.50;;;;;;;;;;4976862;28;20055;-80
2022/04/07 10:09:34;;;;;;;1.73;0.60;;;;;;;;;;4965318;28;20042;-80
2022/04/07 10:12:00;;;;;;;2.50;0.60;;;;;;;;;;4972746;28;20104;-82
2022/04/07 10:14:27;;;;;;;2.58;0.60;;;;;;;;;;4974772;28;20050;-79
2022/04/07 10:16:52;;;;;;;1.20;0.50;;;;;;;;;;4966797;28;20039;-82
2022/04/07 10:19:29;;;;;;;1.92;0.47;;;;;;;;;;4965866;28;20445;-81
2022/04/07 10:21:57;;;;;;;1.15;0.50;;;;;;;;;;4955277;28;20451;-80
2022/04/07 10:24:37;;;;;;;2.75;0.60;;;;;;;;;;4942500;28;20093;-79
2022/04/07 10:27:07;;;;;;;1.23;0.50;;;;;;;;;;4960600;28;20121;-80
2022/04/07 10:29:32;;;;;;;1.23;0.40;;;;;;;;;;4973461;28;20073;-79
2022/04/07 10:32:12;;;;;;;2.55;0.60;;;;;;;;;;4967323;28;20057;-79
2022/04/07 10:34:57;;;;;;;2.80;0.50;;;;;;;;;;4975889;28;20046;-82
2022/04/07 10:37:48;;;;;;;2.47;0.50;;;;;;;;;;4952462;28;20035;-78
2022/04/07 10:40:34;;;;;;;4.53;0.80;;;;;;;;;;4946223;28;20135;-79
2022/04/07 10:43:18;;;;;;;2.88;0.47;;;;;;;;;;4954668;28;20035;-79
2022/04/07 10:45:47;;;;;;;2.60;0.50;;;;;;;;;;4963243;28;20038;-80
2022/04/07 10:48:46;;;;;;;2.55;0.60;;;;;;;;;;4955221;28;20035;-80
2022/04/07 10:51:12;;;;;;;4.90;0.65;;;;;;;;;;4954793;28;20451;-79
2022/04/07 10:54:00;;;;;;;2.22;0.70;;;;;;;;;;4976272;28;20039;-80
2022/04/07 10:56:39;;;;;;;2.85;0.70;;;;;;;;;;4973153;28;20035;-80
2022/04/07 10:59:14;;;;;;;2.28;0.68;;;;;;;;;;4967756;28;20034;-80
2022/04/07 11:01:40;;;;;;;1.45;0.60;;;;;;;;;;4974762;28;20124;-80
2022/04/07 11:04:18;;;;;;;2.60;0.60;;;;;;;;;;4976140;28;20174;-81
2022/04/07 11:07:04;;;;;;;1.40;0.60;;;;;;;;;;4974676;28;20608;-80
2022/04/07 11:09:54;;;;;;;2.38;0.70;;;;;;;;;;4983832;28;20816;-80
2022/04/07 11:12:29;;;;;;;4.03;0.52;;;;;;;;;;4982258;28;20102;-80
2022/04/07 11:15:03;;;;;;;3.03;0.60;;;;;;;;;;4974799;28;20054;-80
2022/04/07 11:17:46;;;;;;;2.20;0.60;;;;;;;;;;4979814;28;20287;-80
2022/04/07 11:20:24;;;;;;;1.05;0.50;;;;;;;;;;4972671;28;20039;-80
2022/04/07 11:22:56;;;;;;;1.88;0.57;;;;;;;;;;4960531;28;20058;-80
2022/04/07 11:25:28;;;;;;;1.25;0.40;;;;;;;;;;4974545;28;20367;-80
2022/04/07 11:28:10;;;;;;;2.05;0.40;;;;;;;;;;4964485;28;20042;-80
2022/04/07 11:31:00;;;;;;;1.10;0.40;;;;;;;;;;4973649;28;20050;-80
2022/04/07 11:33:27;;;;;;;1.17;0.50;;;;;;;;;;4977389;28;20073;-81
2022/04/07 11:35:58;;;;;;;0.93;0.30;;;;;;;;;;4973640;28;20038;-80
2022/04/07 11:38:32;;;;;;;1.48;0.35;;;;;;;;;;4974149;28;20073;-81
2022/04/07 11:41:31;;;;;;;1.17;0.40;;;;;;;;;;4979219;28;20045;-80
2022/04/07 11:43:57;;;;;;;1.75;0.45;;;;;;;;;;4969610;28;20093;-80
2022/04/07 11:46:26;;;;;;;2.60;0.57;;;;;;;;;;4972541;28;20729;-81
2022/04/07 11:48:54;;;;;;;1.30;0.40;;;;;;;;;;4979521;28;20038;-81
2022/04/07 11:51:21;;;;;;;2.55;0.50;;;;;;;;;;4974772;28;20041;-78
2022/04/07 11:53:52;;;;;;;1.85;0.50;;;;;;;;;;4973703;28;20050;-80
2022/04/07 11:56:20;;;;;;;1.55;0.40;;;;;;;;;;4981573;28;20046;-80
2022/04/07 11:59:09;;;;;;;1.33;0.40;;;;;;;;;;4974533;28;20126;-80
2022/04/07 12:01:36;;;;;;;5.15;0.50;;;;;;;;;;4977829;28;20610;-81
2022/04/07 12:04:04;;;;;;;0.90;0.30;;;;;;;;;;4966311;28;20046;-80
2022/04/07 12:06:35;;;;;;;1.88;0.68;;;;;;;;;;4972957;28;20117;-80
2022/04/07 12:09:02;;;;;;;1.15;0.50;;;;;;;;;;4974193;28;20097;-80
2022/04/07 12:11:28;;;;;;;;;;;;;;;;;;4981728;28;20072;-81
2022/04/07 12:13:55;;;;;;;2.40;0.60;;;;;;;;;;4957915;28;20377;-80
2022/04/07 12:16:22;;;;;;;2.03;0.60;;;;;;;;;;4975567;28;20117;-81
2022/04/07 12:18:55;;;;;;;1.70;0.40;;;;;;;;;;4975130;28;20545;-82
2022/04/07 12:21:23;;;;;;;2.30;0.50;;;;;;;;;;4962977;28;20069;-80
2022/04/07 12:23:49;;;;;;;2.50;0.63;;;;;;;;;;4972830;28;20410;-80
2022/04/07 12:26:14;;;;;;;5.28;0.65;;;;;;;;;;4963579;28;20100;-81
2022/04/07 12:28:40;;;;;;;1.75;0.52;;;;;;;;;;4975674;28;20105;-80
2022/04/07 12:31:21;;;;;;;1.85;0.60;;;;;;;;;;4973979;28;20030;-81
2022/04/07 12:33:50;;;;;;;1.30;0.50;;;;;;;;;;4989124;28;20505;-79
2022/04/07 12:36:36;;;;;;;2.20;0.57;;;;;;;;;;4960071;28;21116;-80
2022/04/07 12:39:12;;;;;;;1.77;0.60;;;;;;;;;;4961342;28;20286;-80
2022/04/07 12:41:42;;;;;;;2.33;0.50;;;;;;;;;;4960261;28;20129;-79
2022/04/07 12:44:08;;;;;;;1.10;0.50;;;;;;;;;;4980695;28;20508;-80
2022/04/07 12:46:43;;;;;;;2.58;0.40;;;;;;;;;;4969266;28;20039;-79
2022/04/07 12:49:10;;;;;;;2.20;0.60;;;;;;;;;;4977266;28;20441;-80
2022/04/07 12:51:36;;;;;;;1.60;0.50;;;;;;;;;;4981413;28;20043;-81
2022/04/07 12:54:14;;;;;;;3.40;1.23;;;;;;;;;;4973658;28;20035;-79
2022/04/07 12:56:42;;;;;;;1.58;0.60;;;;;;;;;;4983051;28;20525;-82
2022/04/07 12:59:12;;;;;;;1.90;0.50;;;;;;;;;;4967235;28;20538;-80
2022/04/07 13:01:39;;;;;;;1.95;0.60;;;;;;;;;;4974793;28;20050;-79
2022/04/07 13:04:07;;;;;;;1.67;0.60;;;;;;;;;;4983695;28;20158;-81
2022/04/07 13:06:33;;;;;;;2.05;0.50;;;;;;;;;;4974411;28;20045;-79
2022/04/07 13:08:59;;;;;;;4.75;0.70;;;;;;;;;;4975203;28;20042;-80
2022/04/07 13:11:40;;;;;;;2.10;0.40;;;;;;;;;;4976595;28;20089;-83
2022/04/07 13:14:10;;;;;;;3.65;0.60;;;;;;;;;;4969369;28;20125;-83
2022/04/07 13:16:36;;;;;;;3.55;0.52;;;;;;;;;;4975751;28;20043;-82
2022/04/07 13:19:02;;;;;;;2.95;0.50;;;;;;;;;;4986165;28;20088;-81
2022/04/07 13:21:28;;;;;;;7.07;0.60;;;;;;;;;;4977172;28;20453;-83
2022/04/07 13:23:56;;;;;;;2.08;0.43;;;;;;;;;;4981968;28;20039;-84
2022/04/07 13:26:22;;;;;;;2.42;0.40;;;;;;;;;;4976213;28;20433;-83
2022/04/07 13:28:48;;;;;;;2.35;0.47;;;;;;;;;;4975405;28;20034;-81
2022/04/07 13:31:14;;;;;;;7.63;0.70;;;;;;;;;;4964015;28;20500;-81
2022/04/07 13:33:39;;;;;;;5.18;0.63;;;;;;;;;;4977828;28;20574;-82
2022/04/07 13:36:06;;;;;;;3.72;0.60;;;;;;;;;;4976774;28;20041;-83
2022/04/07 13:38:32;;;;;;;3.53;0.50;;;;;;;;;;4975946;28;20045;-82
2022/04/07 13:40:57;;;;;;;1.73;0.50;;;;;;;;;;4977562;28;20719;-82
2022/04/07 13:43:23;;;;;;;2.92;0.80;;;;;;;;;;4973764;28;20527;-82
2022/04/07 13:45:48;;;;;;;6.10;0.40;;;;;;;;;;4975954;28;20089;-80
2022/04/07 13:48:14;;;;;;;1.85;0.40;;;;;;;;;;4974456;28;20031;-82
2022/04/07 13:50:40;;;;;;;1.42;0.40;;;;;;;;;;4975502;28;20370;-81
2022/04/07 13:53:05;;;;;;;4.78;0.50;;;;;;;;;;4976821;28;20031;-82
2022/04/07 13:55:32;;;;;;;5.93;0.60;;;;;;;;;;4975698;28;20043;-83
2022/04/07 13:57:58;;;;;;;3.60;0.50;;;;;;;;;;4975989;28;20474;-84
2022/04/07 14:00:23;;;;;;;2.60;0.90;;;;;;;;;;4961347;28;20042;-83
2022/04/07 14:02:49;;;;;;;3.38;0.75;;;;;;;;;;4976139;28;20047;-83
2022/04/07 14:05:14;;;;;;;4.53;0.75;;;;;;;;;;4976053;28;20114;-83
2022/04/07 14:07:39;;;;;;;2.97;0.52;;;;;;;;;;4975004;28;20050;-83
2022/04/07 14:10:06;;;;;;;3.50;0.60;;;;;;;;;;4976777;28;20431;-82
2022/04/07 14:12:31;;;;;;;3.85;0.82;;;;;;;;;;4976736;28;20937;-82
2022/04/07 14:14:59;;;;;;;2.70;0.60;;;;;;;;;;4965738;28;20041;-83
2022/04/07 14:17:25;;;;;;;3.33;0.68;;;;;;;;;;4974323;28;20066;-80
2022/04/07 14:19:51;;;;;;;2.78;0.60;;;;;;;;;;4962464;28;20568;-81
2022/04/07 14:22:16;;;;;;;4.60;1.42;;;;;;;;;;4977355;28;20042;-82
2022/04/07 14:24:41;;;;;;;2.42;0.50;;;;;;;;;;4975403;28;20092;-83
2022/04/07 14:27:07;;;;;;;2.95;0.60;;;;;;;;;;4974218;28;20037;-82
2022/04/07 14:29:32;;;;;;;1.80;0.70;;;;;;;;;;4976098;28;20042;-83
2022/04/07 14:31:58;;;;;;;3.75;0.70;;;;;;;;;;4973440;28;20042;-81
2022/04/07 14:34:23;;;;;;;3.03;0.73;;;;;;;;;;4959161;28;20046;-84
2022/04/07 14:36:51;;;;;;;3.67;0.70;;;;;;;;;;4974048;28;20502;-83
2022/04/07 14:39:17;;;;;;;1.85;0.70;;;;;;;;;;4975313;28;20035;-83
2022/04/07 14:41:42;;;;;;;2.88;0.70;;;;;;;;;;4973852;28;20093;-82
2022/04/07 14:44:07;;;;;;;2.72;0.80;;;;;;;;;;4973133;28;20039;-83
2022/04/07 14:46:33;;;;;;;1.85;0.40;;;;;;;;;;4977210;28;20030;-81